Pierron, Illinois
Current Conditions -  °F | °C
As of 12:58 PM on Saturday 25 Oct 2014 (Local Time) from KBLV Reporting Station
Clear Clear  
Wind Chill: 77°   Ceiling: Unl
Heat Index: 79°   Visibility: 10mi
Dew Point: 62°   Wind: 5mph
Humidity: 59%   Direction: 310°NW
Pressure: 30.01"   Gusts: NA
Location:  38.78°N, 89.6°W
Report Text: KBLV 251758Z AUTO 31004KT 10SM CLR 25/17 A3001 RMK AO2 SLP163 T02510165 10252 20103 57008 $
Loading
Personal Weather Stations






























Interactive Weather Map
Tropical Storm Tracking
New forecast layout! Learn more

10-Day Weather Forecast

Advertisements
Track Severe Weather on mobile